createdAt,value
2023-07-18T00:00:20.160Z,99393.06
2023-07-18T00:02:48.133Z,99393.41
2023-07-18T00:05:15.772Z,99388.97
2023-07-18T00:07:44.373Z,99396.59
2023-07-18T00:10:12.868Z,99399.72
2023-07-18T00:12:41.696Z,99397.47
2023-07-18T00:15:10.862Z,99396.25
2023-07-18T00:17:39.291Z,99401.13
2023-07-18T00:20:13.689Z,99396.03
2023-07-18T00:22:42.337Z,99393.81
2023-07-18T00:25:12.358Z,99397.78
2023-07-18T00:27:41.467Z,99401.47
2023-07-18T00:30:13.698Z,99400.03
2023-07-18T00:32:46.035Z,99405.91
2023-07-18T00:35:18.043Z,99408.47
2023-07-18T00:37:45.918Z,99405.81
2023-07-18T00:40:16.091Z,99409.88
2023-07-18T00:42:48.812Z,99406.50
2023-07-18T00:45:17.143Z,99397.94
2023-07-18T00:47:47.153Z,99393.09
2023-07-18T00:50:19.829Z,99389.63
2023-07-18T00:52:56.255Z,99388.94
2023-07-18T00:55:24.528Z,99388.47
2023-07-18T00:57:54.295Z,99389.00
2023-07-18T01:00:24.032Z,99389.91
2023-07-18T01:02:52.626Z,99386.31
2023-07-18T01:05:21.259Z,99390.06
2023-07-18T01:07:49.219Z,99384.72
2023-07-18T01:10:26.435Z,99391.91
2023-07-18T01:13:01.986Z,99390.88
2023-07-18T01:15:34.688Z,99386.69
2023-07-18T01:18:09.999Z,99385.16
2023-07-18T01:20:39.462Z,99378.59
2023-07-18T01:23:06.875Z,99377.88
2023-07-18T01:25:36.255Z,99374.44
2023-07-18T01:28:04.895Z,99371.13
2023-07-18T01:30:32.203Z,99370.03
2023-07-18T01:32:59.527Z,99371.91
2023-07-18T01:35:29.252Z,99365.31
2023-07-18T01:37:59.711Z,99367.28
2023-07-18T01:40:28.169Z,99364.75
2023-07-18T01:42:58.416Z,99368.84
2023-07-18T01:45:29.317Z,99365.69
2023-07-18T01:47:58.215Z,99369.66
2023-07-18T01:50:25.680Z,99371.56
2023-07-18T01:52:53.829Z,99375.19
2023-07-18T01:55:23.710Z,99374.53
2023-07-18T01:57:51.750Z,99368.69
2023-07-18T02:00:21.948Z,99359.13
2023-07-18T02:02:55.341Z,99361.88
2023-07-18T02:05:26.801Z,99361.34
2023-07-18T02:07:55.266Z,99361.69
2023-07-18T02:10:26.954Z,99355.75
2023-07-18T02:13:02.828Z,99357.91
2023-07-18T02:15:31.719Z,99353.66
2023-07-18T02:17:59.277Z,99354.88
2023-07-18T02:20:26.775Z,99347.38
2023-07-18T02:22:54.127Z,99354.47
2023-07-18T02:25:22.509Z,99351.56
2023-07-18T02:27:51.377Z,99348.16
2023-07-18T02:30:18.607Z,99351.59
2023-07-18T02:32:46.154Z,99352.63
2023-07-18T02:35:19.949Z,99354.88
2023-07-18T02:37:48.116Z,99353.25
2023-07-18T02:40:19.150Z,99352.59
2023-07-18T02:42:47.333Z,99348.25
2023-07-18T02:45:15.353Z,99338.78
2023-07-18T02:47:42.945Z,99340.97
2023-07-18T02:50:11.222Z,99345.34
2023-07-18T02:52:40.253Z,99344.13
2023-07-18T02:55:09.278Z,99354.50
2023-07-18T02:57:37.242Z,99357.22
2023-07-18T03:00:12.120Z,99351.63
2023-07-18T03:02:39.812Z,99353.97
2023-07-18T03:05:08.671Z,99360.13
2023-07-18T03:07:35.868Z,99359.56
2023-07-18T03:10:04.767Z,99353.75
2023-07-18T03:12:32.110Z,99363.53
2023-07-18T03:14:59.814Z,99358.47
2023-07-18T03:17:27.274Z,99352.25
2023-07-18T03:19:55.464Z,99358.19
2023-07-18T03:22:22.964Z,99356.84
2023-07-18T03:24:50.924Z,99355.44
2023-07-18T03:27:19.276Z,99352.28
2023-07-18T03:29:46.614Z,99358.75
2023-07-18T03:32:14.397Z,99355.13
2023-07-18T03:34:42.800Z,99351.69
2023-07-18T03:37:11.031Z,99356.47
2023-07-18T03:39:38.548Z,99349.13
2023-07-18T03:42:06.550Z,99345.56
2023-07-18T03:44:34.197Z,99350.25
2023-07-18T03:47:11.148Z,99358.34
2023-07-18T03:49:47.909Z,99352.63
2023-07-18T03:52:15.291Z,99351.59
2023-07-18T03:54:44.271Z,99353.00
2023-07-18T03:57:13.424Z,99353.63
2023-07-18T03:59:41.607Z,99351.41
2023-07-18T04:02:09.202Z,99350.44
2023-07-18T04:04:36.560Z,99349.09
2023-07-18T04:07:04.246Z,99349.03
2023-07-18T04:09:32.144Z,99345.03
2023-07-18T04:11:59.366Z,99354.00
2023-07-18T04:14:26.724Z,99349.91
2023-07-18T04:16:54.043Z,99354.66
2023-07-18T04:19:24.748Z,99353.19
2023-07-18T04:21:51.947Z,99355.34
2023-07-18T04:24:19.369Z,99352.00
2023-07-18T04:26:48.502Z,99347.81
2023-07-18T04:29:15.789Z,99340.00
2023-07-18T04:31:43.179Z,99342.03
2023-07-18T04:34:10.396Z,99350.81
2023-07-18T04:36:38.127Z,99346.44
2023-07-18T04:39:07.030Z,99344.19
2023-07-18T04:41:45.145Z,99346.72
2023-07-18T04:44:17.433Z,99330.66
2023-07-18T04:46:45.056Z,99335.00
2023-07-18T04:49:12.440Z,99339.63
2023-07-18T04:51:39.606Z,99327.63
2023-07-18T04:54:08.146Z,99333.13
2023-07-18T04:56:35.876Z,99346.47
2023-07-18T04:59:03.673Z,99341.00
2023-07-18T05:01:31.313Z,99336.34
2023-07-18T05:03:59.812Z,99337.06
2023-07-18T05:06:27.054Z,99337.69
2023-07-18T05:08:54.931Z,99345.44
2023-07-18T05:11:22.434Z,99337.91
2023-07-18T05:13:50.166Z,99340.78
2023-07-18T05:16:17.789Z,99341.47
2023-07-18T05:18:45.186Z,99347.25
2023-07-18T05:21:12.958Z,99346.94
2023-07-18T05:23:40.119Z,99336.78
2023-07-18T05:26:09.364Z,99334.09
2023-07-18T05:28:36.512Z,99341.75
2023-07-18T05:31:10.732Z,99337.16
2023-07-18T05:33:38.262Z,99337.38
2023-07-18T05:36:06.389Z,99343.50
2023-07-18T05:38:33.734Z,99341.91
2023-07-18T05:41:00.881Z,99344.44
2023-07-18T05:43:28.081Z,99333.97
2023-07-18T05:45:55.986Z,99328.41
2023-07-18T05:48:23.697Z,99320.38
2023-07-18T05:50:50.995Z,99333.28
2023-07-18T05:53:18.570Z,99316.53
2023-07-18T05:55:46.159Z,99319.47
2023-07-18T05:58:14.407Z,99318.47
2023-07-18T06:00:43.106Z,99323.22
2023-07-18T06:03:10.503Z,99313.72
2023-07-18T06:05:37.925Z,99314.44
2023-07-18T06:08:06.404Z,99308.53
2023-07-18T06:10:34.111Z,99308.47
2023-07-18T06:13:01.422Z,99303.59
2023-07-18T06:15:28.948Z,99294.97
2023-07-18T06:17:56.217Z,99300.88
2023-07-18T06:20:23.443Z,99293.75
2023-07-18T06:22:50.919Z,99300.13
2023-07-18T06:25:18.459Z,99295.69
2023-07-18T06:27:45.648Z,99293.72
2023-07-18T06:30:13.575Z,99290.69
2023-07-18T06:32:41.203Z,99284.78
2023-07-18T06:35:23.208Z,99286.13
2023-07-18T06:37:53.953Z,99287.66
2023-07-18T06:40:21.467Z,99282.31
2023-07-18T06:42:48.820Z,99276.19
2023-07-18T06:45:16.314Z,99278.25
2023-07-18T06:47:45.256Z,99281.59
2023-07-18T06:50:13.171Z,99274.25
2023-07-18T06:52:40.682Z,99279.66
2023-07-18T06:55:11.900Z,99279.13
2023-07-18T06:57:43.328Z,99281.06
2023-07-18T07:00:13.978Z,99280.91
2023-07-18T07:02:41.766Z,99285.88
2023-07-18T07:05:10.187Z,99273.56
2023-07-18T07:07:37.416Z,99266.31
2023-07-18T07:10:09.831Z,99270.31
2023-07-18T07:12:37.749Z,99257.88
2023-07-18T07:15:06.522Z,99255.53
2023-07-18T07:17:34.088Z,99246.31
2023-07-18T07:20:01.931Z,99248.56
2023-07-18T07:22:29.220Z,99244.97
2023-07-18T07:24:56.534Z,99246.72
2023-07-18T07:27:24.286Z,99241.19
2023-07-18T07:29:53.118Z,99234.34
2023-07-18T07:32:20.783Z,99229.50
2023-07-18T07:34:48.173Z,99231.53
2023-07-18T07:37:15.709Z,99219.41
2023-07-18T07:39:43.360Z,99218.00
2023-07-18T07:42:10.611Z,99226.28
2023-07-18T07:44:38.047Z,99218.41
2023-07-18T07:47:06.311Z,99211.22
2023-07-18T07:49:33.982Z,99213.19
2023-07-18T07:52:01.538Z,99208.66
2023-07-18T07:54:28.712Z,99207.09
2023-07-18T07:56:56.874Z,99206.19
2023-07-18T07:59:25.048Z,99193.59
2023-07-18T08:01:53.733Z,99181.34
2023-07-18T08:04:21.273Z,99186.16
2023-07-18T08:06:48.620Z,99173.97
2023-07-18T08:09:16.258Z,99170.75
2023-07-18T08:11:43.955Z,99171.69
2023-07-18T08:14:11.169Z,99163.47
2023-07-18T08:16:38.571Z,99170.41
2023-07-18T08:19:06.457Z,99168.09
2023-07-18T08:21:33.904Z,99167.44
2023-07-18T08:24:02.012Z,99158.44
2023-07-18T08:26:29.374Z,99156.91
2023-07-18T08:28:56.675Z,99153.59
2023-07-18T08:31:24.071Z,99144.13
2023-07-18T08:33:51.917Z,99146.88
2023-07-18T08:36:19.387Z,99133.34
2023-07-18T08:38:51.257Z,99127.75
2023-07-18T08:41:23.290Z,99120.38
2023-07-18T08:43:51.445Z,99111.59
2023-07-18T08:46:20.161Z,99119.91
2023-07-18T08:48:51.674Z,99122.34
2023-07-18T08:51:19.541Z,99114.81
2023-07-18T08:53:47.135Z,99114.00
2023-07-18T08:56:15.056Z,99119.69
2023-07-18T08:58:42.742Z,99122.38
2023-07-18T09:01:10.275Z,99117.25
2023-07-18T09:03:37.742Z,99116.66
2023-07-18T09:06:21.179Z,99103.00
2023-07-18T09:08:50.538Z,99098.72
2023-07-18T09:11:22.393Z,99100.69
2023-07-18T09:13:50.106Z,99090.16
2023-07-18T09:16:21.888Z,99098.06
2023-07-18T09:18:56.029Z,99091.22
2023-07-18T09:21:24.841Z,99087.31
2023-07-18T09:23:53.883Z,99098.38
2023-07-18T09:26:22.887Z,99085.91
2023-07-18T09:28:52.495Z,99080.34
2023-07-18T09:31:23.773Z,99079.63
2023-07-18T09:33:55.473Z,99082.16
2023-07-18T09:36:26.364Z,99085.16
2023-07-18T09:38:53.922Z,99076.78
2023-07-18T09:41:24.005Z,99084.59
2023-07-18T09:44:02.863Z,99083.53
2023-07-18T09:46:42.413Z,99088.94
2023-07-18T09:49:14.787Z,99076.84
2023-07-18T09:52:05.181Z,99074.97
2023-07-18T09:54:34.609Z,99079.75
2023-07-18T09:57:13.077Z,99089.84
2023-07-18T09:59:41.487Z,99102.03
2023-07-18T10:02:11.984Z,99108.94
2023-07-18T10:04:39.948Z,99103.34
2023-07-18T10:07:12.143Z,99124.03
2023-07-18T10:09:40.429Z,99150.53
2023-07-18T10:12:09.411Z,99149.78
2023-07-18T10:14:51.303Z,99145.06
2023-07-18T10:17:41.904Z,99139.38
2023-07-18T10:20:23.010Z,99113.06
2023-07-18T10:23:00.325Z,99094.34
2023-07-18T10:25:31.182Z,99072.66
2023-07-18T10:28:01.360Z,99058.09
2023-07-18T10:30:43.044Z,99021.47
2023-07-18T10:33:11.110Z,98973.16
2023-07-18T10:35:43.091Z,98921.59
2023-07-18T10:38:15.623Z,98829.94
2023-07-18T10:40:45.955Z,98797.09
2023-07-18T10:43:18.211Z,98721.44
2023-07-18T10:45:46.400Z,98712.72
2023-07-18T10:48:17.172Z,98733.34
2023-07-18T10:50:47.563Z,98801.94
2023-07-18T10:53:21.384Z,98856.53
2023-07-18T10:55:49.837Z,98927.09
2023-07-18T10:58:20.885Z,98942.41
2023-07-18T11:00:51.255Z,98965.25
2023-07-18T11:03:37.068Z,98990.88
2023-07-18T11:06:08.038Z,99016.69
2023-07-18T11:08:35.630Z,99033.06
2023-07-18T11:11:05.528Z,99054.53
2023-07-18T11:13:39.141Z,99082.06
2023-07-18T11:16:16.196Z,99112.31
2023-07-18T11:18:49.570Z,99103.81
2023-07-18T11:21:20.140Z,99093.19
2023-07-18T11:23:49.120Z,99103.78
2023-07-18T11:26:19.690Z,99102.94
2023-07-18T11:28:53.135Z,99106.44
2023-07-18T11:31:41.112Z,99119.53
2023-07-18T11:34:10.331Z,99111.16
2023-07-18T11:36:41.663Z,99102.97
2023-07-18T11:39:21.479Z,99096.63
2023-07-18T11:41:50.137Z,99093.44
2023-07-18T11:44:27.134Z,99062.22
2023-07-18T11:46:56.177Z,99040.41
2023-07-18T11:49:36.269Z,99034.69
2023-07-18T11:52:07.311Z,98977.31
2023-07-18T11:54:38.591Z,98895.13
2023-07-18T11:57:07.534Z,98963.75
2023-07-18T11:59:35.598Z,99010.41
2023-07-18T12:02:04.069Z,98979.59
2023-07-18T12:04:32.625Z,98959.16
2023-07-18T12:07:00.129Z,98931.88
2023-07-18T12:09:27.667Z,98953.13
2023-07-18T12:11:55.667Z,98902.28
2023-07-18T12:14:23.060Z,98872.63
2023-07-18T12:16:50.557Z,98848.50
2023-07-18T12:19:20.575Z,98846.53
2023-07-18T12:21:50.378Z,98831.94
2023-07-18T12:24:19.444Z,98819.31
2023-07-18T12:26:46.830Z,98809.56
2023-07-18T12:29:16.970Z,98820.75
2023-07-18T12:31:50.583Z,98823.31
2023-07-18T12:34:19.116Z,98818.53
2023-07-18T12:36:47.569Z,98814.13
2023-07-18T12:39:17.051Z,98811.38
2023-07-18T12:41:44.506Z,98809.50
2023-07-18T12:44:25.563Z,98804.28
2023-07-18T12:46:56.743Z,98798.63
2023-07-18T12:51:55.266Z,98798.03
2023-07-18T12:54:22.615Z,98812.22
2023-07-18T12:56:50.682Z,98815.66
2023-07-18T12:59:19.498Z,98825.75
2023-07-18T13:01:47.586Z,98831.38
2023-07-18T13:04:15.707Z,98830.56
2023-07-18T13:06:42.959Z,98827.56
2023-07-18T13:09:10.411Z,98822.19
2023-07-18T13:11:37.814Z,98815.81
2023-07-18T13:14:05.030Z,98815.94
2023-07-18T13:16:32.336Z,98814.81
2023-07-18T13:18:59.701Z,98815.28
2023-07-18T13:21:26.921Z,98807.78
2023-07-18T13:23:54.180Z,98791.00
2023-07-18T13:26:23.737Z,98767.06
2023-07-18T13:28:50.872Z,98751.03
2023-07-18T13:31:18.229Z,98745.31
2023-07-18T13:33:46.561Z,98739.22
2023-07-18T13:36:14.763Z,98746.00
2023-07-18T13:38:42.245Z,98751.38
2023-07-18T13:41:10.426Z,98765.66
2023-07-18T13:43:40.324Z,98767.00
2023-07-18T13:46:08.552Z,98763.44
2023-07-18T13:48:36.197Z,98778.78
2023-07-18T13:51:04.070Z,98777.22
2023-07-18T13:53:31.639Z,98763.09
2023-07-18T13:55:59.556Z,98769.94
2023-07-18T13:58:27.141Z,98767.78
2023-07-18T14:00:56.429Z,98777.63
2023-07-18T14:03:34.070Z,98791.88
2023-07-18T14:06:03.035Z,98803.19
2023-07-18T14:08:31.297Z,98799.53
2023-07-18T14:10:59.114Z,98805.88
2023-07-18T14:13:27.247Z,98793.16
2023-07-18T14:15:55.550Z,98787.22
2023-07-18T14:18:23.130Z,98785.50
2023-07-18T14:20:50.532Z,98777.19
2023-07-18T14:23:18.196Z,98770.66
2023-07-18T14:25:49.124Z,98773.47
2023-07-18T14:28:17.391Z,98771.19
2023-07-18T14:30:45.293Z,98771.66
2023-07-18T14:33:14.970Z,98770.66
2023-07-18T14:35:43.003Z,98775.47
2023-07-18T14:38:12.042Z,98763.75
2023-07-18T14:40:40.680Z,98758.53
2023-07-18T14:43:10.764Z,98768.06
2023-07-18T14:45:38.768Z,98752.28
2023-07-18T14:48:08.112Z,98732.25
2023-07-18T14:50:35.907Z,98719.34
2023-07-18T14:53:03.359Z,98695.34
2023-07-18T14:55:34.465Z,98689.09
2023-07-18T14:58:03.372Z,98679.50
2023-07-18T15:00:30.996Z,98669.19
2023-07-18T15:02:58.740Z,98675.00
2023-07-18T15:05:27.604Z,98680.72
2023-07-18T15:07:55.076Z,98685.22
2023-07-18T15:10:22.580Z,98688.78
2023-07-18T15:12:49.940Z,98685.31
2023-07-18T15:15:19.192Z,98680.41
2023-07-18T15:17:47.893Z,98693.91
2023-07-18T15:20:16.991Z,98685.13
2023-07-18T15:22:44.937Z,98687.09
2023-07-18T15:25:12.405Z,98677.66
2023-07-18T15:27:41.758Z,98672.34
2023-07-18T15:30:11.468Z,98672.53
2023-07-18T15:32:45.229Z,98663.59
2023-07-18T15:35:14.482Z,98657.75
2023-07-18T15:37:44.390Z,98645.13
2023-07-18T15:40:12.817Z,98623.41
2023-07-18T15:42:41.907Z,98605.22
2023-07-18T15:45:10.176Z,98610.22
2023-07-18T15:47:37.530Z,98612.41
2023-07-18T15:50:07.556Z,98621.81
2023-07-18T15:52:35.175Z,98634.75
2023-07-18T15:55:02.346Z,98646.34
2023-07-18T15:57:35.096Z,98635.44
2023-07-18T16:00:03.753Z,98640.41
2023-07-18T16:02:35.511Z,98639.47
2023-07-18T16:05:08.790Z,98624.34
2023-07-18T16:07:36.644Z,98617.34
2023-07-18T16:10:04.473Z,98620.53
2023-07-18T16:12:31.762Z,98626.47
2023-07-18T16:15:00.053Z,98633.59
2023-07-18T16:17:28.895Z,98631.78
2023-07-18T16:19:57.379Z,98631.88
2023-07-18T16:22:24.889Z,98628.69
2023-07-18T16:24:52.781Z,98617.13
2023-07-18T16:27:20.551Z,98627.53
2023-07-18T16:29:47.930Z,98611.56
2023-07-18T16:32:15.973Z,98606.88
2023-07-18T16:34:43.567Z,98615.56
2023-07-18T16:37:11.756Z,98610.56
2023-07-18T16:39:39.894Z,98617.22
2023-07-18T16:42:22.798Z,98621.78
2023-07-18T16:44:52.041Z,98621.41
2023-07-18T16:47:20.336Z,98614.78
2023-07-18T16:49:47.988Z,98615.22
2023-07-18T16:52:16.909Z,98621.84
2023-07-18T16:54:45.078Z,98611.94
2023-07-18T16:57:14.886Z,98607.03
2023-07-18T16:59:42.644Z,98602.91
2023-07-18T17:02:10.489Z,98608.22
2023-07-18T17:04:37.906Z,98605.78
2023-07-18T17:07:05.840Z,98602.91
2023-07-18T17:09:33.155Z,98590.53
2023-07-18T17:12:00.545Z,98579.84
2023-07-18T17:14:27.925Z,98609.88
2023-07-18T17:16:55.461Z,98625.94
2023-07-18T17:19:22.948Z,98625.56
2023-07-18T17:21:50.363Z,98595.91
2023-07-18T17:24:18.023Z,98550.25
2023-07-18T17:26:45.387Z,98580.69
2023-07-18T17:29:12.760Z,98579.84
2023-07-18T17:31:39.915Z,98579.84
2023-07-18T17:34:07.658Z,98637.72
2023-07-18T17:36:35.837Z,98624.97
2023-07-18T17:39:04.034Z,98620.41
2023-07-18T17:41:31.565Z,98635.53
2023-07-18T17:43:58.815Z,98654.63
2023-07-18T17:46:26.087Z,98633.22
2023-07-18T17:48:53.432Z,98652.91
2023-07-18T17:51:21.182Z,98653.22
2023-07-18T17:53:48.768Z,98529.09
2023-07-18T17:56:16.558Z,98419.69
2023-07-18T17:58:44.545Z,98415.44
2023-07-18T18:01:12.641Z,98449.94
2023-07-18T18:03:40.520Z,98481.44
2023-07-18T18:06:10.904Z,98476.38
2023-07-18T18:08:38.370Z,98475.31
2023-07-18T18:11:06.127Z,98482.97
2023-07-18T18:13:33.561Z,98494.28
2023-07-18T18:16:07.943Z,98490.44
2023-07-18T18:18:37.160Z,98496.09
2023-07-18T18:21:05.041Z,98510.06
2023-07-18T18:26:04.969Z,98505.50
2023-07-18T18:28:33.296Z,98505.19
2023-07-18T18:31:01.038Z,98519.91
2023-07-18T18:33:29.071Z,98524.50
2023-07-18T18:35:57.556Z,98513.63
2023-07-18T18:38:25.601Z,98526.84
2023-07-18T18:40:53.905Z,98541.00
2023-07-18T18:43:21.151Z,98558.84
2023-07-18T18:45:48.441Z,98563.97
2023-07-18T18:48:15.735Z,98585.63
2023-07-18T18:50:43.115Z,98609.97
2023-07-18T18:53:10.345Z,98658.22
2023-07-18T18:55:38.235Z,98703.50
2023-07-18T18:58:07.904Z,98712.78
2023-07-18T19:00:35.948Z,98669.53
2023-07-18T19:03:04.290Z,98637.31
2023-07-18T19:05:31.734Z,98615.16
2023-07-18T19:07:58.913Z,98588.03
2023-07-18T19:10:27.986Z,98557.81
2023-07-18T19:12:55.349Z,98555.53
2023-07-18T19:15:23.259Z,98657.22
2023-07-18T19:17:50.656Z,98767.06
2023-07-18T19:20:17.947Z,98814.66
2023-07-18T19:22:46.299Z,98829.97
2023-07-18T19:25:14.393Z,98821.44
2023-07-18T19:27:41.826Z,98698.84
2023-07-18T19:30:11.954Z,98644.03
2023-07-18T19:32:44.475Z,98603.13
2023-07-18T19:35:12.113Z,98547.00
2023-07-18T19:37:40.054Z,98506.00
2023-07-18T19:40:10.499Z,98516.97
2023-07-18T19:42:37.786Z,98557.22
2023-07-18T19:45:05.881Z,98556.38
2023-07-18T19:47:33.109Z,98558.13
2023-07-18T19:50:01.017Z,98578.69
2023-07-18T19:52:28.891Z,98578.41
2023-07-18T19:54:56.098Z,98569.16
2023-07-18T19:57:23.565Z,98593.13
2023-07-18T19:59:51.559Z,98592.66
2023-07-18T20:02:19.240Z,98598.81
2023-07-18T20:04:46.637Z,98609.34
2023-07-18T20:07:14.422Z,98604.50
2023-07-18T20:09:42.131Z,98606.75
2023-07-18T20:12:09.834Z,98610.41
2023-07-18T20:14:37.585Z,98597.69
2023-07-18T20:17:05.705Z,98596.25
2023-07-18T20:19:33.037Z,98606.03
2023-07-18T20:22:00.788Z,98612.75
2023-07-18T20:24:28.179Z,98622.16
2023-07-18T20:26:55.599Z,98637.78
2023-07-18T20:29:22.874Z,98673.81
2023-07-18T20:31:50.068Z,98686.13
2023-07-18T20:34:17.582Z,98678.53
2023-07-18T20:36:45.411Z,98657.75
2023-07-18T20:39:12.982Z,98654.22
2023-07-18T20:41:41.097Z,98638.50
2023-07-18T20:44:09.192Z,98619.72
2023-07-18T20:46:37.207Z,98622.91
2023-07-18T20:49:04.677Z,98622.41
2023-07-18T20:51:32.203Z,98629.75
2023-07-18T20:53:59.521Z,98638.50
2023-07-18T20:56:27.455Z,98643.41
2023-07-18T20:58:55.647Z,98630.84
2023-07-18T21:01:23.745Z,98625.53
2023-07-18T21:03:52.005Z,98628.28
2023-07-18T21:06:19.402Z,98624.91
2023-07-18T21:08:47.164Z,98635.34
2023-07-18T21:11:16.080Z,98630.25
2023-07-18T21:13:44.315Z,98611.34
2023-07-18T21:16:12.553Z,98598.00
2023-07-18T21:18:39.943Z,98593.47
2023-07-18T21:21:07.489Z,98591.50
2023-07-18T21:23:34.976Z,98577.97
2023-07-18T21:26:02.377Z,98582.56
2023-07-18T21:28:31.790Z,98588.09
2023-07-18T21:30:59.219Z,98572.72
2023-07-18T21:33:27.001Z,98581.75
2023-07-18T21:35:54.555Z,98587.91
2023-07-18T21:38:22.145Z,98577.66
2023-07-18T21:40:49.509Z,98578.28
2023-07-18T21:43:16.804Z,98583.69
2023-07-18T21:45:44.099Z,98592.94
2023-07-18T21:48:11.463Z,98590.34
2023-07-18T21:50:40.217Z,98589.19
2023-07-18T21:53:08.688Z,98589.22
2023-07-18T21:55:40.604Z,98604.63
2023-07-18T21:58:08.515Z,98589.13
2023-07-18T22:00:37.808Z,98584.28
2023-07-18T22:03:06.104Z,98578.22
2023-07-18T22:05:33.363Z,98585.22
2023-07-18T22:08:00.625Z,98586.66
2023-07-18T22:10:28.183Z,98586.88
2023-07-18T22:12:55.451Z,98591.41
2023-07-18T22:15:22.745Z,98582.63
2023-07-18T22:17:50.317Z,98589.88
2023-07-18T22:20:17.618Z,98587.84
2023-07-18T22:22:45.217Z,98595.34
2023-07-18T22:25:13.258Z,98605.41
2023-07-18T22:27:41.000Z,98590.72
2023-07-18T22:30:09.625Z,98598.25
2023-07-18T22:32:37.184Z,98595.88
2023-07-18T22:35:05.068Z,98598.97
2023-07-18T22:37:35.433Z,98598.38
2023-07-18T22:40:03.984Z,98599.56
2023-07-18T22:42:31.697Z,98602.22
2023-07-18T22:44:58.875Z,98598.16
2023-07-18T22:47:26.110Z,98606.56
2023-07-18T22:49:53.805Z,98603.31
2023-07-18T22:52:21.296Z,98601.06
2023-07-18T22:54:50.878Z,98600.72
2023-07-18T22:57:19.428Z,98602.75
2023-07-18T22:59:50.302Z,98598.56
2023-07-18T23:02:18.092Z,98600.28
2023-07-18T23:04:46.421Z,98603.94
2023-07-18T23:07:14.903Z,98597.13
2023-07-18T23:09:42.281Z,98606.25
2023-07-18T23:12:12.344Z,98593.81
2023-07-18T23:14:40.064Z,98599.66
2023-07-18T23:17:07.545Z,98590.63
2023-07-18T23:19:35.176Z,98592.16
2023-07-18T23:22:02.578Z,98593.59
2023-07-18T23:24:30.465Z,98595.59
2023-07-18T23:26:57.688Z,98592.31
2023-07-18T23:29:25.361Z,98584.28
2023-07-18T23:31:52.688Z,98588.69
2023-07-18T23:34:20.334Z,98591.84
2023-07-18T23:36:48.889Z,98586.47
2023-07-18T23:39:17.530Z,98587.84
2023-07-18T23:41:44.798Z,98590.16
2023-07-18T23:44:12.247Z,98574.03
2023-07-18T23:46:39.758Z,98583.50
2023-07-18T23:49:07.426Z,98582.00
2023-07-18T23:51:35.028Z,98578.66
2023-07-18T23:54:02.182Z,98569.38
2023-07-18T23:56:30.102Z,98567.16
2023-07-18T23:58:58.769Z,98564.53
